createdAt,value
2018-04-17T00:02:42.238Z,6.87
2018-04-17T00:07:43.197Z,6.87
2018-04-17T00:12:44.168Z,6.40
2018-04-17T00:17:45.131Z,5.50
2018-04-17T00:22:46.160Z,5.57
2018-04-17T00:27:47.080Z,5.83
2018-04-17T00:32:48.044Z,7.37
2018-04-17T00:37:49.011Z,6.73
2018-04-17T00:42:49.977Z,6.80
2018-04-17T00:47:50.932Z,6.30
2018-04-17T00:52:51.902Z,5.70
2018-04-17T00:57:52.865Z,5.77
2018-04-17T01:02:53.815Z,7.10
2018-04-17T01:07:54.926Z,5.70
2018-04-17T01:12:55.888Z,6.93
2018-04-17T01:17:56.861Z,6.97
2018-04-17T01:22:57.804Z,6.33
2018-04-17T01:27:58.796Z,6.10
2018-04-17T01:32:59.742Z,7.70
2018-04-17T01:38:00.716Z,6.40
2018-04-17T01:43:01.688Z,7.00
2018-04-17T01:48:02.638Z,6.83
2018-04-17T01:53:03.655Z,7.43
2018-04-17T01:58:04.578Z,7.50
2018-04-17T02:03:05.540Z,8.10
2018-04-17T02:08:06.501Z,10.27
2018-04-17T02:13:07.453Z,9.93
2018-04-17T02:18:08.404Z,10.40
2018-04-17T02:23:09.366Z,9.07
2018-04-17T02:28:10.337Z,10.20
2018-04-17T02:33:11.285Z,9.20
2018-04-17T02:38:12.254Z,10.27
2018-04-17T02:43:13.188Z,10.80
2018-04-17T02:48:14.157Z,11.37
2018-04-17T02:53:15.147Z,8.67
2018-04-17T02:58:16.092Z,9.60
2018-04-17T03:03:17.035Z,9.30
2018-04-17T03:08:17.983Z,9.97
2018-04-17T03:13:18.935Z,10.23
2018-04-17T03:18:19.891Z,10.10
2018-04-17T03:23:20.834Z,10.10
2018-04-17T03:28:21.814Z,9.30
2018-04-17T03:33:23.635Z,9.60
2018-04-17T03:38:24.595Z,12.40
2018-04-17T03:43:25.531Z,10.97
2018-04-17T03:48:26.487Z,11.03
2018-04-17T03:53:27.447Z,10.40
2018-04-17T03:58:28.389Z,12.00
2018-04-17T04:03:29.348Z,11.67
2018-04-17T04:08:30.307Z,11.77
2018-04-17T04:13:31.248Z,10.40
2018-04-17T04:18:44.487Z,10.20
2018-04-17T04:23:57.879Z,11.27
2018-04-17T04:28:58.841Z,11.00
2018-04-17T04:33:59.806Z,11.90
2018-04-17T04:39:00.797Z,11.13
2018-04-17T04:44:01.784Z,11.20
2018-04-17T04:49:02.734Z,12.23
2018-04-17T04:54:03.722Z,12.50
2018-04-17T04:59:04.675Z,12.67
2018-04-17T05:04:05.627Z,12.57
2018-04-17T05:09:06.571Z,14.10
2018-04-17T05:14:07.660Z,14.53
2018-04-17T05:19:08.599Z,18.77
2018-04-17T05:24:09.597Z,15.47
2018-04-17T05:29:10.547Z,18.67
2018-04-17T05:34:11.520Z,15.53
2018-04-17T05:39:12.496Z,16.97
2018-04-17T05:44:13.461Z,18.03
2018-04-17T05:49:14.416Z,16.03
2018-04-17T05:54:15.387Z,17.03
2018-04-17T05:59:16.328Z,17.00
2018-04-17T06:04:17.311Z,19.53
2018-04-17T06:09:18.287Z,16.37
2018-04-17T06:14:19.254Z,16.03
2018-04-17T06:19:20.237Z,17.27
2018-04-17T06:24:21.208Z,14.67
2018-04-17T06:29:22.161Z,18.03
2018-04-17T06:34:23.140Z,19.20
2018-04-17T06:39:24.099Z,15.50
2018-04-17T06:44:25.076Z,15.53
2018-04-17T06:49:26.025Z,16.30
2018-04-17T06:54:27.021Z,15.83
2018-04-17T06:59:27.887Z,16.53
2018-04-17T07:04:28.835Z,18.00
2018-04-17T07:09:29.824Z,16.23
2018-04-17T07:14:30.765Z,17.73
2018-04-17T07:19:31.721Z,16.50
2018-04-17T07:24:32.675Z,14.33
2018-04-17T07:29:33.659Z,14.47
2018-04-17T07:34:34.629Z,14.53
2018-04-17T07:39:35.591Z,14.97
2018-04-17T07:44:36.560Z,14.17
2018-04-17T07:49:37.529Z,13.77
2018-04-17T07:54:38.495Z,14.33
2018-04-17T07:59:39.436Z,13.80
2018-04-17T08:04:40.424Z,13.87
2018-04-17T08:09:41.365Z,12.83
2018-04-17T08:14:42.338Z,13.47
2018-04-17T08:19:43.318Z,9.70
2018-04-17T08:24:44.277Z,9.77
2018-04-17T08:29:45.244Z,10.20
2018-04-17T08:34:46.227Z,10.97
2018-04-17T08:39:47.208Z,11.00
2018-04-17T08:44:48.171Z,8.63
2018-04-17T08:49:49.165Z,8.70
2018-04-17T08:54:50.196Z,8.77
2018-04-17T08:59:51.161Z,5.60
2018-04-17T09:04:52.118Z,5.30
2018-04-17T09:09:53.072Z,6.77
2018-04-17T09:14:54.049Z,8.97
2018-04-17T09:19:55.047Z,6.60
2018-04-17T09:24:56.011Z,6.83
2018-04-17T09:29:57.005Z,6.43
2018-04-17T09:34:57.999Z,6.83
2018-04-17T09:39:58.980Z,5.70
2018-04-17T09:44:59.965Z,5.03
2018-04-17T09:50:00.922Z,5.00
2018-04-17T09:55:01.932Z,4.73
2018-04-17T10:00:02.898Z,4.70
2018-04-17T10:05:03.872Z,5.27
2018-04-17T10:10:04.852Z,3.93
2018-04-17T10:15:05.831Z,5.20
2018-04-17T10:20:06.781Z,5.20
2018-04-17T10:25:07.753Z,4.60
2018-04-17T10:30:08.720Z,4.90
2018-04-17T10:35:09.681Z,3.87
2018-04-17T10:40:10.678Z,4.20
2018-04-17T10:45:11.622Z,3.87
2018-04-17T10:50:12.560Z,4.13
2018-04-17T10:55:13.585Z,4.10
2018-04-17T11:00:14.553Z,5.30
2018-04-17T11:05:15.535Z,4.27
2018-04-17T11:10:16.558Z,4.43
2018-04-17T11:15:17.489Z,3.77
2018-04-17T11:20:18.440Z,3.57
2018-04-17T11:25:19.441Z,4.00
2018-04-17T11:30:20.456Z,3.70
2018-04-17T11:35:21.405Z,3.63
2018-04-17T11:40:22.393Z,3.40
2018-04-17T11:45:23.407Z,3.33
2018-04-17T11:50:24.411Z,3.87
2018-04-17T11:55:25.437Z,3.20
2018-04-17T12:00:26.415Z,3.47
2018-04-17T12:05:27.424Z,2.60
2018-04-17T12:10:28.428Z,2.93
2018-04-17T12:15:29.445Z,3.33
2018-04-17T12:20:30.437Z,3.00
2018-04-17T12:25:31.426Z,2.93
2018-04-17T12:30:32.395Z,2.40
2018-04-17T12:35:33.369Z,2.33
2018-04-17T12:40:34.357Z,2.30
2018-04-17T12:45:35.365Z,2.60
2018-04-17T12:50:36.338Z,4.53
2018-04-17T12:55:37.334Z,2.60
2018-04-17T13:00:38.298Z,3.70
2018-04-17T13:05:39.300Z,2.10
2018-04-17T13:10:40.265Z,2.10
2018-04-17T13:15:41.273Z,2.17
2018-04-17T13:20:42.222Z,2.50
2018-04-17T13:25:43.236Z,1.93
2018-04-17T13:30:44.224Z,3.20
2018-04-17T13:35:45.213Z,2.77
2018-04-17T13:40:46.199Z,2.60
2018-04-17T13:45:47.232Z,2.73
2018-04-17T13:50:48.224Z,2.90
2018-04-17T13:55:55.978Z,2.70
2018-04-17T14:00:56.952Z,2.97
2018-04-17T14:05:57.934Z,2.70
2018-04-17T14:10:58.926Z,4.60
2018-04-17T14:15:59.899Z,3.47
2018-04-17T14:21:00.868Z,3.17
2018-04-17T14:26:01.851Z,3.17
2018-04-17T14:31:02.841Z,3.20
2018-04-17T14:36:03.816Z,3.27
2018-04-17T14:41:04.802Z,3.30
2018-04-17T14:46:05.798Z,3.50
2018-04-17T14:51:06.788Z,4.27
2018-04-17T14:56:07.804Z,3.57
2018-04-17T15:01:08.821Z,4.87
2018-04-17T15:06:09.791Z,3.20
2018-04-17T15:11:10.779Z,3.57
2018-04-17T15:16:11.757Z,3.47
2018-04-17T15:21:12.712Z,3.83
2018-04-17T15:26:13.679Z,3.93
2018-04-17T15:31:14.684Z,4.63
2018-04-17T15:36:15.667Z,4.23
2018-04-17T15:41:16.667Z,3.80
2018-04-17T15:46:17.648Z,7.20
2018-04-17T15:51:18.624Z,4.53
2018-04-17T15:56:19.610Z,4.43
2018-04-17T16:01:20.588Z,4.60
2018-04-17T16:06:21.544Z,4.03
2018-04-17T16:11:22.515Z,4.40
2018-04-17T16:16:23.531Z,9.27
2018-04-17T16:21:24.495Z,7.83
2018-04-17T16:26:25.464Z,12.33
2018-04-17T16:31:26.464Z,41.90
2018-04-17T16:36:27.460Z,6.57
2018-04-17T16:41:28.461Z,7.20
2018-04-17T16:46:29.472Z,4.97
2018-04-17T16:51:30.604Z,5.63
2018-04-17T16:56:31.667Z,4.80
2018-04-17T17:01:32.644Z,4.63
2018-04-17T17:06:33.640Z,4.00
2018-04-17T17:11:34.622Z,5.73
2018-04-17T17:16:35.611Z,7.63
2018-04-17T17:21:36.600Z,5.50
2018-04-17T17:26:37.593Z,4.20
2018-04-17T17:31:38.600Z,4.70
2018-04-17T17:36:39.602Z,4.43
2018-04-17T17:41:40.952Z,4.47
2018-04-17T17:46:41.963Z,4.43
2018-04-17T17:51:42.984Z,5.30
2018-04-17T17:56:44.045Z,5.83
2018-04-17T18:01:45.056Z,4.47
2018-04-17T18:06:46.064Z,5.10
2018-04-17T18:11:47.112Z,4.10
2018-04-17T18:16:48.130Z,4.47
2018-04-17T18:21:49.157Z,3.77
2018-04-17T18:26:50.129Z,4.83
2018-04-17T18:31:51.127Z,5.80
2018-04-17T18:36:52.133Z,9.80
2018-04-17T18:41:53.180Z,13.60
2018-04-17T18:46:55.408Z,13.80
2018-04-17T18:51:56.429Z,10.07
2018-04-17T18:56:58.510Z,9.20
2018-04-17T19:01:59.505Z,9.40
2018-04-17T19:07:03.221Z,8.50
2018-04-17T19:12:04.267Z,7.10
2018-04-17T19:17:05.252Z,7.73
2018-04-17T19:22:06.229Z,5.87
2018-04-17T19:27:07.284Z,6.10
2018-04-17T19:32:08.269Z,6.00
2018-04-17T19:37:09.253Z,6.00
2018-04-17T19:42:10.312Z,7.17
2018-04-17T19:47:11.300Z,5.60
2018-04-17T19:52:12.309Z,5.43
2018-04-17T19:57:13.334Z,4.53
2018-04-17T20:02:14.323Z,4.50
2018-04-17T20:07:15.339Z,5.13
2018-04-17T20:12:16.382Z,4.40
2018-04-17T20:17:17.352Z,4.97
2018-04-17T20:22:18.373Z,5.77
2018-04-17T20:27:19.384Z,4.73
2018-04-17T20:32:20.376Z,5.70
2018-04-17T20:37:21.393Z,5.17
2018-04-17T20:42:22.441Z,6.20
2018-04-17T20:47:23.419Z,6.33
2018-04-17T20:52:24.440Z,5.73
2018-04-17T20:57:25.462Z,6.60
2018-04-17T21:02:26.441Z,6.40
2018-04-17T21:07:27.465Z,6.63
2018-04-17T21:12:28.509Z,6.40
2018-04-17T21:17:29.527Z,6.43
2018-04-17T21:22:30.518Z,6.70
2018-04-17T21:27:31.511Z,7.17
2018-04-17T21:32:32.494Z,6.53
2018-04-17T21:37:33.456Z,5.80
2018-04-17T21:42:34.451Z,6.40
2018-04-17T21:47:35.423Z,7.47
2018-04-17T21:52:36.379Z,7.60
2018-04-17T21:57:37.376Z,7.07
2018-04-17T22:02:38.349Z,7.50
2018-04-17T22:07:39.329Z,7.17
2018-04-17T22:12:40.265Z,7.70
2018-04-17T22:17:41.236Z,7.30
2018-04-17T22:22:42.201Z,8.17
2018-04-17T22:27:43.211Z,7.07
2018-04-17T22:32:44.193Z,7.40
2018-04-17T22:37:45.179Z,6.53
2018-04-17T22:42:46.216Z,7.03
2018-04-17T22:47:47.224Z,6.97
2018-04-17T22:52:48.191Z,7.30
2018-04-17T22:57:49.182Z,7.27
2018-04-17T23:02:50.120Z,5.70
2018-04-17T23:07:51.072Z,6.40
2018-04-17T23:12:52.033Z,6.43
2018-04-17T23:17:52.995Z,6.70
2018-04-17T23:22:53.940Z,6.80
2018-04-17T23:27:54.992Z,6.80
2018-04-17T23:32:55.942Z,6.60
2018-04-17T23:37:56.889Z,7.07
2018-04-17T23:42:57.881Z,5.70
2018-04-17T23:47:58.844Z,7.77
2018-04-17T23:52:59.810Z,7.27
2018-04-17T23:58:00.800Z,6.43
